Time;durP1;ratioP1;P1;durP2;ratioP2;P2;SDS_P1;SDS_P2;PMS_P1;PMS_P2;Temp;Humidity;BMP_temperature;BMP_pressure;BME280_temperature;BME280_humidity;BME280_pressure;Samples;Min_cycle;Max_cycle;Signal;HPM_P1;HPM_P2
2023/01/22 03:00:40;;;;;;;26.90;23.57;;;-0.40;99.90;;;;;;6045686;23;20378;31
2023/01/22 03:03:14;;;;;;;24.93;22.40;;;-0.40;99.90;;;;;;4888203;29;20497;-79
2023/01/22 03:05:48;;;;;;;27.13;22.53;;;-0.40;99.90;;;;;;4892312;29;20458;-79
2023/01/22 03:08:15;;;;;;;26.50;22.97;;;-0.40;99.90;;;;;;4900168;29;20466;-80
2023/01/22 03:10:42;;;;;;;26.97;23.80;;;-0.40;99.90;;;;;;4893690;29;20449;-78
2023/01/22 03:21:26;;;;;;;25.87;23.20;;;-0.30;99.90;;;;;;4890812;29;20459;-79
2023/01/22 03:23:54;;;;;;;24.00;21.60;;;-0.20;99.90;;;;;;4894689;29;20464;-77
2023/01/22 03:26:23;;;;;;;25.27;22.67;;;-0.30;99.90;;;;;;4901344;29;20601;-79
2023/01/22 03:28:51;;;;;;;27.43;23.30;;;-0.30;99.90;;;;;;4889744;29;20530;-80
2023/01/22 03:31:20;;;;;;;26.50;23.67;;;-0.30;99.90;;;;;;4889841;29;20478;-78
2023/01/22 03:33:47;;;;;;;26.73;23.83;;;-0.30;99.90;;;;;;4891626;29;20450;-79
2023/01/22 03:36:14;;;;;;;25.63;23.00;;;-0.30;99.90;;;;;;4899559;29;20813;-78
2023/01/22 03:38:47;;;;;;;24.93;22.43;;;-0.30;99.90;;;;;;4892457;29;20492;-78
2023/01/22 03:41:18;;;;;;;26.10;22.53;;;-0.30;99.90;;;;;;4889471;29;20507;-79
2023/01/22 03:43:47;;;;;;;25.87;23.17;;;-0.30;99.90;;;;;;4890397;29;20965;-79
2023/01/22 03:46:20;;;;;;;25.73;22.97;;;-0.30;99.90;;;;;;4893993;29;20457;-79
2023/01/22 03:48:52;;;;;;;24.73;22.17;;;-0.30;99.90;;;;;;4894724;29;20440;-78
2023/01/22 03:51:20;;;;;;;26.43;23.10;;;-0.30;99.90;;;;;;4892561;29;20469;-79
2023/01/22 03:53:47;;;;;;;24.73;22.13;;;-0.30;99.90;;;;;;4889823;29;20459;-78
2023/01/22 03:56:16;;;;;;;26.40;23.67;;;-0.30;99.90;;;;;;4899403;29;20556;-81
2023/01/22 03:58:44;;;;;;;24.63;22.10;;;-0.30;99.90;;;;;;4897890;29;20463;-78
2023/01/22 04:01:13;;;;;;;28.70;23.17;;;-0.30;99.90;;;;;;4895046;29;20486;-79
2023/01/22 04:03:41;;;;;;;25.93;23.33;;;-0.30;99.90;;;;;;4903924;29;20450;-78
2023/01/22 04:06:10;;;;;;;25.37;22.63;;;-0.30;99.90;;;;;;4888238;29;20906;-79
2023/01/22 04:08:39;;;;;;;26.67;23.77;;;-0.30;99.90;;;;;;4892770;29;20507;-81
2023/01/22 04:11:06;;;;;;;25.17;22.63;;;-0.30;99.90;;;;;;4895353;29;21041;-80
2023/01/22 04:13:34;;;;;;;25.83;23.23;;;-0.30;99.90;;;;;;4897558;29;20474;-80
2023/01/22 04:16:02;;;;;;;29.37;25.07;;;-0.30;99.90;;;;;;4895254;29;20453;-80
2023/01/22 04:18:49;;;;;;;27.63;24.63;;;-0.30;99.90;;;;;;4896566;29;20442;-81
2023/01/22 04:21:27;;;;;;;27.67;23.83;;;-0.30;99.90;;;;;;4900156;29;20576;-79
2023/01/22 04:23:57;;;;;;;28.47;24.80;;;-0.30;99.90;;;;;;4902509;29;20926;-80
2023/01/22 04:26:23;;;;;;;26.67;23.70;;;-0.30;99.90;;;;;;4903522;29;20454;-81
2023/01/22 04:28:50;;;;;;;28.40;25.33;;;-0.30;99.90;;;;;;4900595;29;20474;-81
2023/01/22 04:31:20;;;;;;;28.27;24.23;;;-0.30;99.90;;;;;;4901777;29;20478;-81
2023/01/22 04:34:01;;;;;;;26.63;23.87;;;-0.30;99.90;;;;;;4901234;29;21037;-81
2023/01/22 04:36:32;;;;;;;26.80;24.00;;;-0.30;99.90;;;;;;4899442;29;20457;-81
2023/01/22 04:38:58;;;;;;;27.20;24.30;;;-0.20;99.90;;;;;;4894195;29;20459;-80
2023/01/22 04:41:25;;;;;;;27.43;24.60;;;-0.30;99.90;;;;;;4902279;29;20486;-82
2023/01/22 04:43:52;;;;;;;27.80;24.90;;;-0.30;99.90;;;;;;4901930;29;20463;-80
2023/01/22 04:46:23;;;;;;;29.40;25.17;;;-0.30;99.90;;;;;;4901178;29;20456;-80
2023/01/22 04:48:50;;;;;;;27.83;24.83;;;-0.30;99.90;;;;;;4897317;29;20465;-81
2023/01/22 04:51:20;;;;;;;26.83;23.93;;;-0.20;99.90;;;;;;4895451;29;20477;-81
2023/01/22 04:53:47;;;;;;;27.50;24.40;;;-0.20;99.90;;;;;;4889398;29;20493;-79
2023/01/22 04:56:14;;;;;;;27.60;24.70;;;-0.20;99.90;;;;;;4896808;29;20462;-78
2023/01/22 04:58:42;;;;;;;28.00;24.97;;;-0.20;99.90;;;;;;4892527;29;20515;-80
2023/01/22 05:01:09;;;;;;;27.63;24.73;;;-0.20;99.90;;;;;;4902322;29;20476;-78
2023/01/22 05:03:36;;;;;;;29.07;25.13;;;-0.20;99.90;;;;;;4898065;29;20801;-79
2023/01/22 05:06:05;;;;;;;27.23;24.20;;;-0.10;99.90;;;;;;4892597;29;21002;-79
2023/01/22 05:08:36;;;;;;;28.93;25.83;;;-0.10;99.90;;;;;;4893020;29;20458;-80
2023/01/22 05:11:04;;;;;;;28.17;25.17;;;-0.20;99.90;;;;;;4894748;29;20844;-79
2023/01/22 05:13:42;;;;;;;28.03;24.00;;;-0.20;99.90;;;;;;4894291;29;21024;-79
2023/01/22 05:16:10;;;;;;;27.37;24.57;;;-0.10;99.90;;;;;;4892991;29;20451;-82
2023/01/22 05:18:37;;;;;;;29.67;26.47;;;-0.10;99.90;;;;;;4902837;29;20447;-80
2023/01/22 05:21:04;;;;;;;29.03;26.13;;;-0.10;99.90;;;;;;4901112;29;20506;-81
2023/01/22 05:23:32;;;;;;;28.17;25.13;;;-0.10;99.90;;;;;;4893783;29;20830;-83
2023/01/22 05:26:01;;;;;;;31.87;26.60;;;-0.10;99.90;;;;;;4896420;29;20460;-89
2023/01/22 05:28:40;;;;;;;31.53;26.03;;;-0.10;99.90;;;;;;4892370;29;20557;-79
2023/01/22 05:31:13;;;;;;;27.53;24.63;;;-0.10;99.90;;;;;;4897449;29;20479;-77
2023/01/22 05:33:49;;;;;;;27.97;25.07;;;-0.10;99.90;;;;;;4890851;29;20534;-77
2023/01/22 05:36:16;;;;;;;26.93;24.10;;;0.00;99.90;;;;;;4895584;29;20864;-79
2023/01/22 05:38:45;;;;;;;28.30;24.83;;;0.00;99.90;;;;;;4907265;29;20531;-80
2023/01/22 05:41:14;;;;;;;28.37;24.97;;;-0.10;99.90;;;;;;4891143;29;20470;-81
2023/01/22 05:43:41;;;;;;;29.70;25.60;;;-0.10;99.90;;;;;;4894117;29;20454;-82
2023/01/22 05:46:12;;;;;;;28.70;25.60;;;-0.10;99.90;;;;;;4891500;29;21031;-78
2023/01/22 05:48:58;;;;;;;27.50;24.60;;;-0.10;99.90;;;;;;4898635;29;20542;-81
2023/01/22 05:51:29;;;;;;;27.20;24.30;;;-0.10;99.90;;;;;;4886390;29;20509;-80
2023/01/22 05:53:56;;;;;;;28.20;24.73;;;-0.10;99.90;;;;;;4881403;29;20563;-79
2023/01/22 05:56:30;;;;;;;28.37;24.40;;;-0.10;99.90;;;;;;4881478;29;20460;-80
2023/01/22 05:58:57;;;;;;;27.00;24.17;;;0.00;99.90;;;;;;4897108;29;20817;-80
2023/01/22 06:01:25;;;;;;;26.40;23.60;;;-0.10;99.90;;;;;;4900156;29;20974;-80
2023/01/22 06:03:53;;;;;;;26.40;23.30;;;-0.10;99.90;;;;;;4900555;29;20450;-81
2023/01/22 06:06:23;;;;;;;26.20;23.23;;;-0.10;99.90;;;;;;4893001;29;20494;-80
2023/01/22 06:08:51;;;;;;;29.33;26.03;;;-0.10;99.90;;;;;;4894145;29;20491;-81
2023/01/22 06:11:20;;;;;;;28.30;25.27;;;-0.10;99.90;;;;;;4896684;29;20473;-80
2023/01/22 06:13:49;;;;;;;32.43;26.00;;;-0.10;99.90;;;;;;4895963;29;20928;-81
2023/01/22 06:16:20;;;;;;;29.70;25.77;;;-0.10;99.90;;;;;;4903469;29;20451;-81
2023/01/22 06:19:06;;;;;;;29.70;26.30;;;-0.10;99.90;;;;;;4897967;29;20467;-79
2023/01/22 06:21:53;;;;;;;28.23;25.20;;;-0.10;99.90;;;;;;4897212;29;20556;-77
2023/01/22 06:24:26;;;;;;;28.63;25.00;;;-0.10;99.90;;;;;;4892186;29;20689;-79
2023/01/22 06:26:53;;;;;;;29.83;26.57;;;-0.10;99.90;;;;;;4892592;29;20482;-80
2023/01/22 06:29:22;;;;;;;29.53;26.13;;;-0.10;99.90;;;;;;4896094;29;20466;-81
2023/01/22 06:31:50;;;;;;;29.97;25.27;;;-0.10;99.90;;;;;;4889855;29;20479;-78
2023/01/22 06:34:19;;;;;;;27.63;24.70;;;-0.10;99.90;;;;;;4889205;29;20490;-80
2023/01/22 06:36:46;;;;;;;32.20;27.00;;;-0.10;99.90;;;;;;4880049;29;20968;-84
2023/01/22 06:39:14;;;;;;;31.67;26.60;;;0.00;99.90;;;;;;4895870;29;20461;-79
2023/01/22 06:41:47;;;;;;;29.07;25.80;;;0.00;99.90;;;;;;4884584;29;21047;-79
2023/01/22 06:44:17;;;;;;;29.03;25.93;;;-0.10;99.90;;;;;;4886353;29;20485;-81
2023/01/22 06:46:46;;;;;;;30.43;25.83;;;-0.10;99.90;;;;;;4892041;29;20471;-80
2023/01/22 06:49:20;;;;;;;30.77;26.33;;;-0.10;99.90;;;;;;4879527;29;20472;-81
2023/01/22 06:51:47;;;;;;;28.77;25.73;;;0.00;99.90;;;;;;4885512;29;20514;-82
2023/01/22 06:54:14;;;;;;;29.03;26.07;;;0.00;99.90;;;;;;4888071;29;20541;-81
2023/01/22 06:56:41;;;;;;;28.53;25.13;;;0.00;99.90;;;;;;4901427;29;20454;-83
2023/01/22 06:59:08;;;;;;;27.33;24.43;;;0.00;99.90;;;;;;4887314;29;20985;-80
2023/01/22 07:01:35;;;;;;;33.13;26.17;;;0.00;99.90;;;;;;4881655;29;20511;-78
2023/01/22 07:04:03;;;;;;;29.10;25.93;;;0.00;99.90;;;;;;4893196;29;20454;-78
2023/01/22 07:06:30;;;;;;;30.33;26.20;;;0.00;99.90;;;;;;4889408;29;20451;-79
2023/01/22 07:08:57;;;;;;;29.83;25.97;;;0.00;99.90;;;;;;4900691;29;20854;-79
2023/01/22 07:11:23;;;;;;;32.43;27.07;;;0.00;99.90;;;;;;4892764;29;20514;-80
2023/01/22 07:13:50;;;;;;;29.80;26.50;;;0.00;99.90;;;;;;4898626;29;20482;-82
2023/01/22 07:16:17;;;;;;;29.53;26.40;;;0.00;99.90;;;;;;4895786;29;20485;-80
2023/01/22 07:18:44;;;;;;;34.57;28.50;;;0.00;99.90;;;;;;4902331;29;20468;-81
2023/01/22 07:21:12;;;;;;;29.97;26.57;;;0.00;99.90;;;;;;4903507;29;20911;-83
2023/01/22 07:23:40;;;;;;;30.43;27.13;;;0.10;99.90;;;;;;4901205;29;20481;-81
2023/01/22 07:26:07;;;;;;;30.07;26.83;;;0.00;99.90;;;;;;4909938;29;20458;-81
2023/01/22 07:28:34;;;;;;;30.00;26.73;;;0.00;99.90;;;;;;4907734;29;20461;-81
2023/01/22 07:31:02;;;;;;;35.73;26.63;;;0.00;99.90;;;;;;4904348;29;20516;-79
2023/01/22 07:33:29;;;;;;;39.37;28.97;;;0.10;99.90;;;;;;4894972;29;20579;-79
2023/01/22 07:35:56;;;;;;;31.77;27.70;;;0.10;99.90;;;;;;4901533;29;20457;-79
2023/01/22 07:38:26;;;;;;;32.80;26.90;;;0.10;99.90;;;;;;4894978;29;20445;-83
2023/01/22 07:40:54;;;;;;;36.00;28.10;;;0.10;99.90;;;;;;4894229;29;20478;-83
2023/01/22 07:43:21;;;;;;;36.77;28.37;;;0.10;99.90;;;;;;4894818;29;20509;-79
2023/01/22 07:45:47;;;;;;;33.70;26.00;;;0.20;99.90;;;;;;4892492;29;20507;-78
2023/01/22 07:48:14;;;;;;;36.30;28.27;;;0.20;99.90;;;;;;4880366;29;20450;-76
2023/01/22 07:50:41;;;;;;;32.57;27.50;;;0.30;99.90;;;;;;4889308;29;20462;-80
2023/01/22 07:53:10;;;;;;;37.47;28.43;;;0.20;99.90;;;;;;4896392;29;20897;-79
2023/01/22 07:55:40;;;;;;;36.13;29.40;;;0.20;99.90;;;;;;4891067;29;20543;-80
2023/01/22 07:58:07;;;;;;;34.13;29.10;;;0.20;99.90;;;;;;4902248;29;20447;-82
2023/01/22 08:00:35;;;;;;;41.03;29.33;;;0.30;99.90;;;;;;4891181;29;20466;-79
2023/01/22 08:03:03;;;;;;;40.67;30.13;;;0.20;99.90;;;;;;4900255;29;20458;-77
2023/01/22 08:05:30;;;;;;;40.37;29.30;;;0.30;99.90;;;;;;4896029;29;20518;-79
2023/01/22 08:07:57;;;;;;;36.97;28.63;;;0.30;99.90;;;;;;4890151;29;20467;-79
2023/01/22 08:10:24;;;;;;;37.43;27.33;;;0.40;99.90;;;;;;4878709;29;20463;-80
2023/01/22 08:12:52;;;;;;;36.10;27.50;;;0.40;99.90;;;;;;4884484;29;20483;-78
2023/01/22 08:15:19;;;;;;;37.90;28.10;;;0.50;99.90;;;;;;4885017;29;20484;-79
2023/01/22 08:17:48;;;;;;;36.60;28.70;;;0.50;99.90;;;;;;4884780;29;20492;-78
2023/01/22 08:20:16;;;;;;;39.10;29.10;;;0.50;99.90;;;;;;4877996;29;20462;-79
2023/01/22 08:22:44;;;;;;;37.47;27.97;;;0.60;99.90;;;;;;4879420;29;20472;-79
2023/01/22 08:25:11;;;;;;;37.03;27.43;;;0.50;99.90;;;;;;4893454;29;20453;-81
2023/01/22 08:27:37;;;;;;;36.00;28.03;;;0.60;99.90;;;;;;4900648;29;20441;-79
2023/01/22 08:30:07;;;;;;;35.83;27.53;;;0.60;99.90;;;;;;4892991;29;20471;-80
2023/01/22 08:32:34;;;;;;;33.97;27.13;;;0.60;99.90;;;;;;4898394;29;20483;-78
2023/01/22 08:35:01;;;;;;;34.77;28.13;;;0.70;99.90;;;;;;4900464;29;20455;-78
2023/01/22 08:37:28;;;;;;;35.63;26.97;;;0.70;99.90;;;;;;4879426;29;20478;-78
2023/01/22 08:39:55;;;;;;;37.60;28.13;;;0.70;99.90;;;;;;4893351;29;20548;-78
2023/01/22 08:42:21;;;;;;;35.47;28.40;;;0.70;99.90;;;;;;4884354;29;20482;-79
2023/01/22 08:44:48;;;;;;;34.00;27.77;;;0.70;99.90;;;;;;4884967;29;20466;-78
2023/01/22 08:47:17;;;;;;;37.13;27.70;;;0.70;99.90;;;;;;4885766;29;20491;-79
2023/01/22 08:49:43;;;;;;;35.77;26.80;;;0.70;99.90;;;;;;4899225;29;20458;-77
2023/01/22 08:52:10;;;;;;;35.63;28.73;;;0.80;99.90;;;;;;4888218;29;20500;-77
2023/01/22 08:54:37;;;;;;;38.27;28.23;;;0.80;99.90;;;;;;4899320;29;20622;-81
2023/01/22 08:57:04;;;;;;;36.77;28.27;;;0.90;99.90;;;;;;4897729;29;20468;-78
2023/01/22 08:59:31;;;;;;;41.47;30.03;;;1.00;99.90;;;;;;4897377;29;20474;-77
2023/01/22 09:01:58;;;;;;;39.57;28.57;;;1.00;99.90;;;;;;4894406;29;20469;-78
2023/01/22 09:04:27;;;;;;;44.07;31.13;;;1.10;99.90;;;;;;4890418;29;20502;-78
2023/01/22 09:06:54;;;;;;;44.27;31.13;;;1.10;99.90;;;;;;4900066;29;20439;-78
2023/01/22 09:09:21;;;;;;;46.60;30.87;;;1.10;99.90;;;;;;4893569;29;20527;-78
2023/01/22 09:11:49;;;;;;;45.57;31.43;;;1.10;99.90;;;;;;4897019;29;21060;-78
2023/01/22 09:14:15;;;;;;;44.07;31.97;;;1.20;99.90;;;;;;4888649;29;20524;-81
2023/01/22 09:16:43;;;;;;;46.87;32.67;;;1.20;99.90;;;;;;4879749;29;20456;-77
2023/01/22 09:19:11;;;;;;;44.90;31.40;;;1.30;99.90;;;;;;4903932;29;20470;-79
2023/01/22 09:21:39;;;;;;;43.07;32.03;;;1.30;99.90;;;;;;4892928;29;21026;-79
2023/01/22 09:24:07;;;;;;;45.70;35.25;;;1.30;99.90;;;;;;4893450;29;20463;-81
2023/01/22 09:26:35;;;;;;;47.67;38.20;;;1.30;99.90;;;;;;4898324;29;20448;-79
2023/01/22 09:29:04;;;;;;;43.87;32.30;;;1.40;99.90;;;;;;4897966;29;20732;-78
2023/01/22 09:31:31;;;;;;;46.67;33.33;;;1.50;99.90;;;;;;4876110;29;20606;-77
2023/01/22 09:33:59;;;;;;;37.47;29.93;;;1.50;99.90;;;;;;4885761;29;20634;-79
2023/01/22 09:36:25;;;;;;;39.77;30.53;;;1.60;99.90;;;;;;4892829;29;20505;-77
2023/01/22 09:38:54;;;;;;;39.00;28.77;;;1.70;99.90;;;;;;4892794;29;20573;-78
2023/01/22 09:41:26;;;;;;;32.57;28.37;;;1.90;99.90;;;;;;4894269;29;20280;-79
2023/01/22 09:43:57;;;;;;;36.97;30.27;;;2.00;99.90;;;;;;4900574;29;20261;-78
2023/01/22 09:46:29;;;;;;;31.37;26.73;;;2.00;99.90;;;;;;4894116;29;20266;-78
2023/01/22 09:49:01;;;;;;;32.37;26.77;;;1.90;99.90;;;;;;4886857;29;20567;-79
2023/01/22 09:51:28;;;;;;;33.20;25.93;;;1.90;99.90;;;;;;4885731;29;20256;-78
2023/01/22 09:53:59;;;;;;;34.23;27.27;;;1.90;99.90;;;;;;4887427;29;20297;-78
2023/01/22 09:56:33;;;;;;;34.83;27.67;;;2.00;99.90;;;;;;4888780;29;20197;-79
2023/01/22 09:59:03;;;;;;;30.30;26.10;;;2.00;99.90;;;;;;4894152;29;20200;-79
2023/01/22 10:01:31;;;;;;;29.10;24.47;;;2.10;99.90;;;;;;4890318;29;20724;-79
2023/01/22 10:04:02;;;;;;;31.30;25.40;;;2.20;99.90;;;;;;4896927;29;20752;-79
2023/01/22 10:06:30;;;;;;;30.37;25.70;;;2.20;99.90;;;;;;4880336;29;20257;-78
2023/01/22 10:09:04;;;;;;;31.03;25.03;;;2.20;99.90;;;;;;4896235;29;20578;-78
2023/01/22 10:11:31;;;;;;;30.30;25.70;;;2.40;99.90;;;;;;4899416;29;20229;-79
2023/01/22 10:14:01;;;;;;;28.60;24.77;;;2.50;99.90;;;;;;4898773;29;20225;-79
2023/01/22 10:16:28;;;;;;;27.80;23.43;;;2.50;99.90;;;;;;4873899;29;20209;-79
2023/01/22 10:19:01;;;;;;;27.23;24.30;;;2.70;99.90;;;;;;4898794;29;20248;-78
2023/01/22 10:21:30;;;;;;;29.00;24.53;;;2.70;99.90;;;;;;4883330;29;20224;-79
2023/01/22 10:23:58;;;;;;;30.63;24.67;;;2.70;99.90;;;;;;4891393;29;20196;-81
2023/01/22 10:26:32;;;;;;;27.27;23.00;;;2.70;99.90;;;;;;4888731;29;20669;-79
2023/01/22 10:29:05;;;;;;;25.30;22.70;;;2.60;99.90;;;;;;4899685;29;20205;-83
2023/01/22 10:31:34;;;;;;;29.03;23.00;;;2.40;99.90;;;;;;4886671;29;20244;-84
2023/01/22 10:34:03;;;;;;;25.60;22.87;;;2.30;99.90;;;;;;4901715;29;20229;-84
2023/01/22 10:36:31;;;;;;;25.70;22.87;;;2.30;99.90;;;;;;4894018;29;20621;-82
2023/01/22 10:39:09;;;;;;;26.65;24.05;;;2.30;99.90;;;;;;4888371;29;20442;-79
2023/01/22 10:41:36;;;;;;;25.33;22.90;;;2.30;99.90;;;;;;4893595;29;20213;-78
2023/01/22 10:44:24;;;;;;;24.37;21.87;;;2.30;99.90;;;;;;4898240;29;20197;-79
2023/01/22 10:46:52;;;;;;;24.90;22.43;;;2.30;99.90;;;;;;4893863;29;20268;-78
2023/01/22 10:49:21;;;;;;;21.93;19.80;;;2.30;99.90;;;;;;4890500;29;20639;-78
2023/01/22 10:51:53;;;;;;;23.97;21.57;;;2.30;99.90;;;;;;4894994;29;20220;-78
2023/01/22 10:54:25;;;;;;;23.17;20.97;;;2.20;99.90;;;;;;4883521;29;20217;-82
2023/01/22 10:57:03;;;;;;;22.83;20.47;;;2.20;99.90;;;;;;4878919;29;20264;-83
2023/01/22 10:59:31;;;;;;;24.98;22.77;;;2.10;99.90;;;;;;4889024;29;20451;-81
2023/01/22 11:01:59;;;;;;;22.13;19.97;;;2.00;99.90;;;;;;4890270;29;20272;-81
2023/01/22 11:04:27;;;;;;;21.67;19.57;;;2.00;99.90;;;;;;4894400;29;20197;-82
2023/01/22 11:06:59;;;;;;;22.50;20.40;;;1.90;99.90;;;;;;4895726;29;20192;-81
2023/01/22 11:09:33;;;;;;;21.63;19.67;;;1.80;99.90;;;;;;4889257;29;20200;-81
2023/01/22 11:12:08;;;;;;;22.13;20.10;;;1.80;99.90;;;;;;4889784;29;20232;-81
2023/01/22 11:14:37;;;;;;;22.73;20.63;;;1.90;99.90;;;;;;4886018;29;20228;-81
2023/01/22 11:17:11;;;;;;;24.47;21.97;;;2.00;99.90;;;;;;4897867;29;20203;-80
2023/01/22 11:19:46;;;;;;;24.13;21.67;;;2.10;99.90;;;;;;4893895;29;20221;-82
2023/01/22 11:22:21;;;;;;;21.87;19.67;;;2.20;99.90;;;;;;4888478;29;20225;-82
2023/01/22 11:24:50;;;;;;;21.80;19.77;;;2.20;99.90;;;;;;4880785;29;20249;-80
2023/01/22 11:27:44;;;;;;;22.43;20.37;;;2.30;99.90;;;;;;4889372;29;20260;-77
2023/01/22 11:30:33;;;;;;;22.90;20.80;;;2.30;99.90;;;;;;4899085;29;20254;-78
2023/01/22 11:33:08;;;;;;;23.90;21.67;;;2.50;99.90;;;;;;4889866;29;20197;-81
2023/01/22 11:35:43;;;;;;;23.10;20.80;;;2.60;99.90;;;;;;4885489;29;20287;-77
2023/01/22 11:38:18;;;;;;;21.67;19.57;;;2.70;99.90;;;;;;4886174;29;20257;-82
2023/01/22 11:41:00;;;;;;;22.67;20.33;;;2.70;99.90;;;;;;4876386;29;20296;-79
2023/01/22 11:43:45;;;;;;;21.10;19.00;;;2.60;99.90;;;;;;4895122;29;20201;-80
2023/01/22 11:46:33;;;;;;;22.43;20.23;;;2.60;99.90;;;;;;4890133;29;20262;-79
2023/01/22 11:49:10;;;;;;;23.47;21.10;;;2.50;99.90;;;;;;4882026;29;20254;-81
2023/01/22 11:51:49;;;;;;;23.00;20.63;;;2.30;99.90;;;;;;4886829;29;20231;-79
2023/01/22 11:54:33;;;;;;;21.90;19.80;;;2.20;99.90;;;;;;4898112;29;20289;-78
2023/01/22 11:57:11;;;;;;;23.17;20.67;;;2.20;99.90;;;;;;4899155;29;20205;-78
2023/01/22 12:00:03;;;;;;;21.70;19.40;;;2.10;99.90;;;;;;4901402;29;20201;-77
2023/01/22 12:02:52;;;;;;;21.67;19.47;;;2.00;99.90;;;;;;4889297;29;20845;-78
2023/01/22 12:05:34;;;;;;;22.43;20.20;;;2.00;99.90;;;;;;4900509;29;20209;-77
2023/01/22 12:08:15;;;;;;;24.50;22.07;;;1.90;99.90;;;;;;4892887;29;20462;-78
2023/01/22 12:11:00;;;;;;;23.63;21.23;;;1.90;99.90;;;;;;4909026;29;20211;-81
2023/01/22 12:13:45;;;;;;;23.60;20.87;;;2.00;99.90;;;;;;4885227;29;20456;-78
2023/01/22 12:16:19;;;;;;;22.70;20.47;;;2.00;99.90;;;;;;4900221;29;20709;-79
2023/01/22 12:19:09;;;;;;;21.67;19.40;;;1.90;99.90;;;;;;4897375;29;20449;-77
2023/01/22 12:21:48;;;;;;;20.83;18.60;;;2.00;99.90;;;;;;4904268;29;20216;-79
2023/01/22 12:24:20;;;;;;;22.80;20.43;;;2.10;99.90;;;;;;4897020;29;20449;-79
2023/01/22 12:26:51;;;;;;;21.90;19.77;;;2.20;99.90;;;;;;4896153;29;20449;-79
2023/01/22 12:29:24;;;;;;;24.40;21.97;;;2.20;99.90;;;;;;4898487;29;20336;-80
2023/01/22 12:31:56;;;;;;;23.83;20.60;;;2.30;99.90;;;;;;4892960;29;20225;-79
2023/01/22 12:34:30;;;;;;;24.87;21.03;;;2.40;99.90;;;;;;4901327;29;20600;-78
2023/01/22 12:36:58;;;;;;;23.23;20.83;;;2.30;99.90;;;;;;4901262;29;20227;-77
2023/01/22 12:39:28;;;;;;;22.70;20.40;;;2.30;99.90;;;;;;4907261;29;20266;-81
2023/01/22 12:42:07;;;;;;;23.00;20.67;;;2.20;99.90;;;;;;4897378;29;20224;-82
2023/01/22 12:44:55;;;;;;;22.83;20.63;;;2.10;99.90;;;;;;4902458;29;20445;-80
2023/01/22 12:47:29;;;;;;;22.73;20.40;;;2.10;99.90;;;;;;4894666;29;20256;-81
2023/01/22 12:49:56;;;;;;;24.67;21.43;;;2.10;99.90;;;;;;4889700;29;20283;-78
2023/01/22 12:52:35;;;;;;;23.53;20.80;;;2.10;99.90;;;;;;4898250;29;20538;-80
2023/01/22 12:55:06;;;;;;;24.07;21.60;;;2.00;99.90;;;;;;4895673;29;20501;-79
2023/01/22 12:57:38;;;;;;;24.63;22.03;;;1.90;99.90;;;;;;4883846;29;20497;-79
2023/01/22 13:00:24;;;;;;;23.00;20.73;;;1.90;99.90;;;;;;4888550;29;20479;-80
2023/01/22 13:02:51;;;;;;;24.97;22.27;;;1.90;99.90;;;;;;4874157;29;20884;-78
2023/01/22 13:05:22;;;;;;;24.57;22.07;;;1.90;99.90;;;;;;4875359;29;20465;-78
2023/01/22 13:08:01;;;;;;;24.80;22.30;;;1.80;99.90;;;;;;4885832;29;20214;-78
2023/01/22 13:10:30;;;;;;;24.47;21.97;;;1.90;99.90;;;;;;4878316;29;20510;-79
2023/01/22 13:12:59;;;;;;;23.63;21.13;;;1.90;99.90;;;;;;4888661;29;20205;-79
2023/01/22 13:15:30;;;;;;;23.57;21.10;;;2.00;99.90;;;;;;4884174;29;20567;-79
2023/01/22 13:18:02;;;;;;;25.30;22.47;;;2.20;99.90;;;;;;4891473;29;20217;-80
2023/01/22 13:20:30;;;;;;;23.53;21.23;;;2.20;99.90;;;;;;4886250;29;20204;-81
2023/01/22 13:22:58;;;;;;;24.10;21.70;;;2.20;99.90;;;;;;4893074;29;20205;-79
2023/01/22 13:25:26;;;;;;;24.00;21.50;;;2.30;99.90;;;;;;4896883;29;20821;-80
2023/01/22 13:27:54;;;;;;;22.57;20.27;;;2.20;99.90;;;;;;4894741;29;20204;-80
2023/01/22 13:30:25;;;;;;;22.77;20.10;;;2.20;99.90;;;;;;4893754;29;20213;-82
2023/01/22 13:33:07;;;;;;;22.47;20.23;;;2.30;99.90;;;;;;4893570;29;20284;-79
2023/01/22 13:35:41;;;;;;;22.10;19.23;;;2.30;99.90;;;;;;4899468;29;20220;-79
2023/01/22 13:38:19;;;;;;;21.23;19.17;;;2.20;99.90;;;;;;4891183;29;20246;-80
2023/01/22 13:40:49;;;;;;;22.63;20.27;;;2.30;99.90;;;;;;4894778;29;20223;-81
2023/01/22 13:43:18;;;;;;;22.07;19.90;;;2.20;99.90;;;;;;4897107;29;20221;-77
2023/01/22 13:45:45;;;;;;;22.63;20.30;;;2.20;99.90;;;;;;4897125;29;20204;-78
2023/01/22 13:48:17;;;;;;;21.03;18.93;;;2.20;99.90;;;;;;4887945;29;20271;-77
2023/01/22 13:50:53;;;;;;;23.00;20.60;;;2.30;99.90;;;;;;4892594;29;20233;-79
2023/01/22 13:53:28;;;;;;;22.67;20.37;;;2.20;99.90;;;;;;4897704;29;20897;-79
2023/01/22 13:55:55;;;;;;;21.90;19.57;;;2.10;99.90;;;;;;4893628;29;20225;-78
2023/01/22 13:58:39;;;;;;;21.67;19.57;;;2.20;99.90;;;;;;4894447;29;21285;-79
2023/01/22 14:01:06;;;;;;;21.63;19.53;;;2.20;99.90;;;;;;4893129;29;20232;-79
2023/01/22 14:03:38;;;;;;;20.10;18.10;;;2.10;99.90;;;;;;4896277;29;20677;-78
2023/01/22 14:06:08;;;;;;;21.87;19.77;;;2.20;99.90;;;;;;4895045;29;20607;-79
2023/01/22 14:08:48;;;;;;;21.37;19.17;;;2.30;99.90;;;;;;4894113;29;20200;-79
2023/01/22 14:11:16;;;;;;;21.40;19.37;;;2.30;99.90;;;;;;4889390;29;20226;-77
2023/01/22 14:13:44;;;;;;;21.57;19.50;;;2.20;99.90;;;;;;4898768;29;20217;-79
2023/01/22 14:16:11;;;;;;;22.20;20.00;;;2.20;99.90;;;;;;4883286;29;20223;-80
2023/01/22 14:18:40;;;;;;;22.57;20.07;;;2.10;99.90;;;;;;4896947;29;20318;-80
2023/01/22 14:21:08;;;;;;;20.50;18.57;;;2.10;99.90;;;;;;4897237;29;20468;-80
2023/01/22 14:23:35;;;;;;;20.67;18.83;;;2.10;99.90;;;;;;4902499;29;20209;-77
2023/01/22 14:26:04;;;;;;;20.60;18.13;;;2.10;99.90;;;;;;4896888;29;20446;-78
2023/01/22 14:28:32;;;;;;;20.77;18.87;;;2.00;99.90;;;;;;4885013;29;20204;-78
2023/01/22 14:30:59;;;;;;;21.60;19.50;;;2.00;99.90;;;;;;4891457;29;20241;-81
2023/01/22 14:33:28;;;;;;;21.67;19.57;;;2.00;99.90;;;;;;4891240;29;20201;-77
2023/01/22 14:35:56;;;;;;;21.63;19.43;;;2.00;99.90;;;;;;4898024;29;20488;-80
2023/01/22 14:38:27;;;;;;;21.20;19.00;;;1.90;99.90;;;;;;4879392;29;20228;-78
2023/01/22 14:40:54;;;;;;;21.63;19.43;;;1.90;99.90;;;;;;4889727;29;20296;-79
2023/01/22 14:43:21;;;;;;;22.17;19.80;;;1.90;99.90;;;;;;4890640;29;20208;-78
2023/01/22 14:45:48;;;;;;;21.33;19.10;;;1.90;99.90;;;;;;4890790;29;20485;-79
2023/01/22 14:48:16;;;;;;;22.20;19.53;;;1.80;99.90;;;;;;4906294;29;20215;-78
2023/01/22 14:50:43;;;;;;;22.10;19.80;;;1.90;99.90;;;;;;4888337;29;20891;-78
2023/01/22 14:53:11;;;;;;;22.27;20.00;;;1.90;99.90;;;;;;4895010;29;20257;-78
2023/01/22 14:55:42;;;;;;;23.37;20.97;;;1.80;99.90;;;;;;4893388;29;20497;-79
2023/01/22 14:58:11;;;;;;;22.10;19.80;;;1.90;99.90;;;;;;4894321;29;20485;-79
2023/01/22 15:00:38;;;;;;;21.53;19.33;;;1.90;99.90;;;;;;4895383;29;20898;-78
2023/01/22 15:03:05;;;;;;;21.13;19.03;;;1.90;99.90;;;;;;4893363;29;20205;-80
2023/01/22 15:05:32;;;;;;;20.97;18.87;;;1.90;99.90;;;;;;4892888;29;20213;-78
2023/01/22 15:08:00;;;;;;;19.93;18.03;;;1.90;99.90;;;;;;4897026;29;20492;-77
2023/01/22 15:10:28;;;;;;;20.90;19.07;;;1.90;99.90;;;;;;4888432;29;20198;-78
2023/01/22 15:12:55;;;;;;;19.37;17.50;;;1.90;99.90;;;;;;4896843;29;20257;-77
2023/01/22 15:15:25;;;;;;;19.50;17.70;;;1.90;99.90;;;;;;4895334;29;20569;-79
2023/01/22 15:17:54;;;;;;;19.67;17.83;;;1.90;99.90;;;;;;4903653;29;20669;-77
2023/01/22 15:20:21;;;;;;;20.27;18.37;;;2.00;99.90;;;;;;4889250;29;20485;-78
2023/01/22 15:22:49;;;;;;;20.03;18.10;;;1.90;99.90;;;;;;4897390;29;20461;-81
2023/01/22 15:25:16;;;;;;;21.03;19.00;;;1.80;99.90;;;;;;4891166;29;20201;-83
2023/01/22 15:27:44;;;;;;;22.43;20.13;;;1.80;99.90;;;;;;4891359;29;20556;-83
2023/01/22 15:30:12;;;;;;;21.40;19.37;;;1.80;99.90;;;;;;4891344;29;20410;-84
2023/01/22 15:32:39;;;;;;;20.67;18.77;;;1.70;99.90;;;;;;4897659;29;20541;-82
2023/01/22 15:35:07;;;;;;;20.93;19.00;;;1.70;99.90;;;;;;4897493;29;20256;-81
2023/01/22 15:37:35;;;;;;;21.13;19.13;;;1.60;99.90;;;;;;4894352;29;20965;-81
2023/01/22 15:40:02;;;;;;;22.17;19.97;;;1.60;99.90;;;;;;4904496;29;20461;-81
2023/01/22 15:42:30;;;;;;;23.47;21.17;;;1.60;99.90;;;;;;4894143;29;21018;-81
2023/01/22 15:44:59;;;;;;;23.90;21.37;;;1.60;99.90;;;;;;4897820;29;20452;-82
2023/01/22 15:47:25;;;;;;;22.17;20.07;;;1.50;99.90;;;;;;4896560;29;20945;-82
2023/01/22 15:49:52;;;;;;;21.23;19.23;;;1.50;99.90;;;;;;4895912;29;20477;-82
2023/01/22 15:52:19;;;;;;;22.73;20.37;;;1.50;99.90;;;;;;4901246;29;20251;-81
2023/01/22 15:54:53;;;;;;;21.87;19.83;;;1.40;99.90;;;;;;4898795;29;20524;-81
2023/01/22 15:57:20;;;;;;;22.63;20.43;;;1.40;99.90;;;;;;4896810;29;21075;-83